sensor_id;sensor_type;location;lat;lon;timestamp;temperature;humidity
34698;DHT22;61391;50.922;6.928;2023-01-10T00:00:38;8.30;99.90
34698;DHT22;61391;50.922;6.928;2023-01-10T00:03:09;8.20;99.90
34698;DHT22;61391;50.922;6.928;2023-01-10T00:05:37;8.30;99.90
34698;DHT22;61391;50.922;6.928;2023-01-10T00:08:06;8.40;99.90
34698;DHT22;61391;50.922;6.928;2023-01-10T00:10:33;8.40;99.90
34698;DHT22;61391;50.922;6.928;2023-01-10T00:16:21;8.30;99.90
34698;DHT22;61391;50.922;6.928;2023-01-10T00:18:48;8.30;99.90
34698;DHT22;61391;50.922;6.928;2023-01-10T00:21:15;8.20;99.90
34698;DHT22;61391;50.922;6.928;2023-01-10T00:23:41;8.20;99.90
34698;DHT22;61391;50.922;6.928;2023-01-10T00:26:18;8.30;99.90
34698;DHT22;61391;50.922;6.928;2023-01-10T00:28:45;8.40;99.90
34698;DHT22;61391;50.922;6.928;2023-01-10T00:31:12;8.50;99.90
34698;DHT22;61391;50.922;6.928;2023-01-10T00:33:41;8.40;99.90
34698;DHT22;61391;50.922;6.928;2023-01-10T00:36:08;8.40;99.90
34698;DHT22;61391;50.922;6.928;2023-01-10T00:38:37;8.50;99.90
34698;DHT22;61391;50.922;6.928;2023-01-10T00:41:03;8.40;99.90
34698;DHT22;61391;50.922;6.928;2023-01-10T00:43:49;8.30;99.90
34698;DHT22;61391;50.922;6.928;2023-01-10T00:46:39;8.20;99.90
34698;DHT22;61391;50.922;6.928;2023-01-10T00:49:04;8.20;99.90
34698;DHT22;61391;50.922;6.928;2023-01-10T00:51:35;8.20;99.90
34698;DHT22;61391;50.922;6.928;2023-01-10T00:54:03;8.20;99.90
34698;DHT22;61391;50.922;6.928;2023-01-10T00:56:29;8.10;99.90
34698;DHT22;61391;50.922;6.928;2023-01-10T00:59:02;8.10;99.90
34698;DHT22;61391;50.922;6.928;2023-01-10T01:01:28;8.10;99.90
34698;DHT22;61391;50.922;6.928;2023-01-10T01:03:54;8.00;99.90
34698;DHT22;61391;50.922;6.928;2023-01-10T01:06:24;7.90;99.90
34698;DHT22;61391;50.922;6.928;2023-01-10T01:08:54;8.00;99.90
34698;DHT22;61391;50.922;6.928;2023-01-10T01:14:42;8.10;99.90
34698;DHT22;61391;50.922;6.928;2023-01-10T01:17:17;8.00;99.90
34698;DHT22;61391;50.922;6.928;2023-01-10T01:19:45;8.00;99.90
34698;DHT22;61391;50.922;6.928;2023-01-10T01:22:12;8.10;99.90
34698;DHT22;61391;50.922;6.928;2023-01-10T01:24:50;8.30;99.90
34698;DHT22;61391;50.922;6.928;2023-01-10T01:27:16;8.30;99.90
34698;DHT22;61391;50.922;6.928;2023-01-10T01:29:44;8.30;99.90
34698;DHT22;61391;50.922;6.928;2023-01-10T01:32:11;8.30;99.90
34698;DHT22;61391;50.922;6.928;2023-01-10T01:38:04;8.20;99.90
34698;DHT22;61391;50.922;6.928;2023-01-10T01:40:29;8.10;99.90
34698;DHT22;61391;50.922;6.928;2023-01-10T01:42:58;8.10;99.90
34698;DHT22;61391;50.922;6.928;2023-01-10T01:45:40;8.10;99.90
34698;DHT22;61391;50.922;6.928;2023-01-10T01:51:17;8.00;99.90
34698;DHT22;61391;50.922;6.928;2023-01-10T01:54:05;8.10;99.90
34698;DHT22;61391;50.922;6.928;2023-01-10T01:56:43;8.10;99.90
34698;DHT22;61391;50.922;6.928;2023-01-10T02:02:21;8.20;99.90
34698;DHT22;61391;50.922;6.928;2023-01-10T02:05:01;8.30;99.90
34698;DHT22;61391;50.922;6.928;2023-01-10T02:07:33;8.20;99.90
34698;DHT22;61391;50.922;6.928;2023-01-10T03:44:30;8.20;99.90
34698;DHT22;61391;50.922;6.928;2023-01-10T03:50:36;8.20;99.90
34698;DHT22;61391;50.922;6.928;2023-01-10T03:56:26;7.90;99.90
34698;DHT22;61391;50.922;6.928;2023-01-10T03:58:53;8.00;99.90
34698;DHT22;61391;50.922;6.928;2023-01-10T04:01:29;7.90;99.90
34698;DHT22;61391;50.922;6.928;2023-01-10T04:03:57;7.90;99.90
34698;DHT22;61391;50.922;6.928;2023-01-10T04:06:24;7.90;99.90
34698;DHT22;61391;50.922;6.928;2023-01-10T04:08:52;7.80;99.90
34698;DHT22;61391;50.922;6.928;2023-01-10T04:11:21;7.70;99.90
34698;DHT22;61391;50.922;6.928;2023-01-10T04:13:46;7.60;99.90
34698;DHT22;61391;50.922;6.928;2023-01-10T04:16:13;7.60;99.90
34698;DHT22;61391;50.922;6.928;2023-01-10T04:18:41;7.70;99.90
34698;DHT22;61391;50.922;6.928;2023-01-10T04:21:08;7.60;99.90
34698;DHT22;61391;50.922;6.928;2023-01-10T04:23:34;7.70;99.90
34698;DHT22;61391;50.922;6.928;2023-01-10T04:26:00;7.70;99.90
34698;DHT22;61391;50.922;6.928;2023-01-10T04:28:27;7.70;99.90
34698;DHT22;61391;50.922;6.928;2023-01-10T04:30:53;7.70;99.90
34698;DHT22;61391;50.922;6.928;2023-01-10T04:33:43;7.70;99.90
34698;DHT22;61391;50.922;6.928;2023-01-10T04:36:10;7.70;99.90
34698;DHT22;61391;50.922;6.928;2023-01-10T04:38:37;7.60;99.90
34698;DHT22;61391;50.922;6.928;2023-01-10T04:41:02;7.50;99.90
34698;DHT22;61391;50.922;6.928;2023-01-10T04:43:30;7.50;99.90
34698;DHT22;61391;50.922;6.928;2023-01-10T04:45:58;7.50;99.90
34698;DHT22;61391;50.922;6.928;2023-01-10T04:48:25;7.50;99.90
34698;DHT22;61391;50.922;6.928;2023-01-10T04:50:52;7.60;99.90
34698;DHT22;61391;50.922;6.928;2023-01-10T04:53:19;7.60;99.90
34698;DHT22;61391;50.922;6.928;2023-01-10T04:55:48;7.50;99.90
34698;DHT22;61391;50.922;6.928;2023-01-10T04:58:25;7.50;99.90
34698;DHT22;61391;50.922;6.928;2023-01-10T05:00:51;7.40;99.90
34698;DHT22;61391;50.922;6.928;2023-01-10T05:03:18;7.50;99.90
34698;DHT22;61391;50.922;6.928;2023-01-10T05:05:45;7.50;99.90
34698;DHT22;61391;50.922;6.928;2023-01-10T05:08:11;7.60;99.90
34698;DHT22;61391;50.922;6.928;2023-01-10T05:10:37;7.60;99.90
34698;DHT22;61391;50.922;6.928;2023-01-10T05:13:26;7.50;99.90
34698;DHT22;61391;50.922;6.928;2023-01-10T05:15:56;7.50;99.90
34698;DHT22;61391;50.922;6.928;2023-01-10T05:18:24;7.60;99.90
34698;DHT22;61391;50.922;6.928;2023-01-10T05:21:02;7.60;99.90
34698;DHT22;61391;50.922;6.928;2023-01-10T05:26:49;7.60;99.90
34698;DHT22;61391;50.922;6.928;2023-01-10T05:29:15;7.60;99.90
34698;DHT22;61391;50.922;6.928;2023-01-10T05:31:41;7.60;99.90
34698;DHT22;61391;50.922;6.928;2023-01-10T05:34:10;7.60;99.90
34698;DHT22;61391;50.922;6.928;2023-01-10T05:36:37;7.50;99.90
34698;DHT22;61391;50.922;6.928;2023-01-10T05:39:02;7.50;99.90
34698;DHT22;61391;50.922;6.928;2023-01-10T05:41:28;7.50;99.90
34698;DHT22;61391;50.922;6.928;2023-01-10T05:43:54;7.50;99.90
34698;DHT22;61391;50.922;6.928;2023-01-10T05:46:20;7.60;99.90
34698;DHT22;61391;50.922;6.928;2023-01-10T05:48:45;7.60;99.90
34698;DHT22;61391;50.922;6.928;2023-01-10T05:51:12;7.60;99.90
34698;DHT22;61391;50.922;6.928;2023-01-10T05:53:38;7.70;99.90
34698;DHT22;61391;50.922;6.928;2023-01-10T05:56:04;7.80;99.90
34698;DHT22;61391;50.922;6.928;2023-01-10T05:58:32;7.70;99.90
34698;DHT22;61391;50.922;6.928;2023-01-10T06:04:19;7.30;99.90
34698;DHT22;61391;50.922;6.928;2023-01-10T06:06:45;7.30;99.90
34698;DHT22;61391;50.922;6.928;2023-01-10T06:09:10;7.30;99.90
34698;DHT22;61391;50.922;6.928;2023-01-10T06:11:36;7.30;99.90
34698;DHT22;61391;50.922;6.928;2023-01-10T06:14:03;7.40;99.90
34698;DHT22;61391;50.922;6.928;2023-01-10T06:16:29;7.60;99.90
34698;DHT22;61391;50.922;6.928;2023-01-10T06:18:55;7.70;99.90
34698;DHT22;61391;50.922;6.928;2023-01-10T06:24:43;7.70;99.90
34698;DHT22;61391;50.922;6.928;2023-01-10T06:30:31;7.50;99.90
34698;DHT22;61391;50.922;6.928;2023-01-10T06:33:04;7.40;99.90
34698;DHT22;61391;50.922;6.928;2023-01-10T06:35:31;7.30;99.90
34698;DHT22;61391;50.922;6.928;2023-01-10T06:41:18;7.70;99.90
34698;DHT22;61391;50.922;6.928;2023-01-10T06:43:46;7.70;99.90
34698;DHT22;61391;50.922;6.928;2023-01-10T06:46:13;7.50;99.90
34698;DHT22;61391;50.922;6.928;2023-01-10T06:48:41;7.20;99.90
34698;DHT22;61391;50.922;6.928;2023-01-10T06:54:31;6.90;99.90
34698;DHT22;61391;50.922;6.928;2023-01-10T06:56:56;6.80;99.90
34698;DHT22;61391;50.922;6.928;2023-01-10T06:59:22;6.70;99.90
34698;DHT22;61391;50.922;6.928;2023-01-10T07:01:47;6.80;99.90
34698;DHT22;61391;50.922;6.928;2023-01-10T07:04:13;6.90;99.90
34698;DHT22;61391;50.922;6.928;2023-01-10T07:06:39;7.00;99.90
34698;DHT22;61391;50.922;6.928;2023-01-10T07:09:06;7.00;99.90
34698;DHT22;61391;50.922;6.928;2023-01-10T07:11:32;6.90;99.90
34698;DHT22;61391;50.922;6.928;2023-01-10T07:13:59;7.00;99.90
34698;DHT22;61391;50.922;6.928;2023-01-10T07:16:26;7.10;99.90
34698;DHT22;61391;50.922;6.928;2023-01-10T07:18:53;7.10;99.90
34698;DHT22;61391;50.922;6.928;2023-01-10T07:21:19;7.20;99.90
34698;DHT22;61391;50.922;6.928;2023-01-10T07:23:48;7.40;99.90
34698;DHT22;61391;50.922;6.928;2023-01-10T07:26:22;7.40;99.90
34698;DHT22;61391;50.922;6.928;2023-01-10T07:28:49;7.50;99.90
34698;DHT22;61391;50.922;6.928;2023-01-10T07:31:16;7.60;99.90
34698;DHT22;61391;50.922;6.928;2023-01-10T07:37:04;7.60;99.90
34698;DHT22;61391;50.922;6.928;2023-01-10T07:39:30;7.60;99.90
34698;DHT22;61391;50.922;6.928;2023-01-10T07:41:55;7.50;99.90
34698;DHT22;61391;50.922;6.928;2023-01-10T07:44:21;7.50;99.90
34698;DHT22;61391;50.922;6.928;2023-01-10T07:46:47;7.50;99.90
34698;DHT22;61391;50.922;6.928;2023-01-10T07:49:12;7.50;99.90
34698;DHT22;61391;50.922;6.928;2023-01-10T07:51:38;7.40;99.90
34698;DHT22;61391;50.922;6.928;2023-01-10T07:54:04;7.30;99.90
34698;DHT22;61391;50.922;6.928;2023-01-10T07:59:52;7.10;99.90
34698;DHT22;61391;50.922;6.928;2023-01-10T08:02:18;7.60;99.90
34698;DHT22;61391;50.922;6.928;2023-01-10T08:04:43;7.70;99.90
34698;DHT22;61391;50.922;6.928;2023-01-10T08:10:32;7.50;99.90
34698;DHT22;61391;50.922;6.928;2023-01-10T08:12:59;7.50;99.90
34698;DHT22;61391;50.922;6.928;2023-01-10T08:15:24;7.10;99.90
34698;DHT22;61391;50.922;6.928;2023-01-10T08:17:50;7.10;99.90
34698;DHT22;61391;50.922;6.928;2023-01-10T08:20:16;7.20;99.90
34698;DHT22;61391;50.922;6.928;2023-01-10T08:22:41;7.20;99.90
34698;DHT22;61391;50.922;6.928;2023-01-10T08:25:08;7.00;99.90
34698;DHT22;61391;50.922;6.928;2023-01-10T08:27:33;7.10;99.90
34698;DHT22;61391;50.922;6.928;2023-01-10T08:29:59;7.20;99.90
34698;DHT22;61391;50.922;6.928;2023-01-10T08:32:24;7.40;99.90
34698;DHT22;61391;50.922;6.928;2023-01-10T08:34:50;7.60;99.90
34698;DHT22;61391;50.922;6.928;2023-01-10T08:37:16;8.00;99.90
34698;DHT22;61391;50.922;6.928;2023-01-10T08:39:41;8.30;99.90
34698;DHT22;61391;50.922;6.928;2023-01-10T08:42:10;8.40;99.90
34698;DHT22;61391;50.922;6.928;2023-01-10T08:44:36;8.50;99.90
34698;DHT22;61391;50.922;6.928;2023-01-10T08:47:01;8.50;99.90
34698;DHT22;61391;50.922;6.928;2023-01-10T08:49:27;8.50;99.90
34698;DHT22;61391;50.922;6.928;2023-01-10T08:51:53;8.60;99.90
34698;DHT22;61391;50.922;6.928;2023-01-10T08:54:18;9.10;99.90
34698;DHT22;61391;50.922;6.928;2023-01-10T08:56:44;9.40;99.90
34698;DHT22;61391;50.922;6.928;2023-01-10T08:59:09;9.50;99.90
34698;DHT22;61391;50.922;6.928;2023-01-10T09:01:35;9.50;99.90
34698;DHT22;61391;50.922;6.928;2023-01-10T09:04:01;9.50;99.90
34698;DHT22;61391;50.922;6.928;2023-01-10T09:06:27;9.20;99.90
34698;DHT22;61391;50.922;6.928;2023-01-10T09:08:53;9.60;99.90
34698;DHT22;61391;50.922;6.928;2023-01-10T09:11:18;9.80;99.90
34698;DHT22;61391;50.922;6.928;2023-01-10T09:13:48;9.90;99.90
34698;DHT22;61391;50.922;6.928;2023-01-10T09:16:17;10.70;99.90
34698;DHT22;61391;50.922;6.928;2023-01-10T09:18:42;10.80;99.90
34698;DHT22;61391;50.922;6.928;2023-01-10T09:21:11;10.90;99.90
34698;DHT22;61391;50.922;6.928;2023-01-10T09:23:36;11.10;99.90
34698;DHT22;61391;50.922;6.928;2023-01-10T09:26:04;11.70;99.90
34698;DHT22;61391;50.922;6.928;2023-01-10T09:28:29;11.50;99.90
34698;DHT22;61391;50.922;6.928;2023-01-10T09:30:55;11.80;99.90
34698;DHT22;61391;50.922;6.928;2023-01-10T09:33:20;11.90;99.90
34698;DHT22;61391;50.922;6.928;2023-01-10T09:35:46;11.80;99.90
34698;DHT22;61391;50.922;6.928;2023-01-10T09:38:17;11.10;99.90
34698;DHT22;61391;50.922;6.928;2023-01-10T09:49:10;11.00;99.90
34698;DHT22;61391;50.922;6.928;2023-01-10T09:51:45;11.20;99.90
34698;DHT22;61391;50.922;6.928;2023-01-10T09:54:26;10.60;99.90
34698;DHT22;61391;50.922;6.928;2023-01-10T09:56:53;11.40;99.90
34698;DHT22;61391;50.922;6.928;2023-01-10T09:59:22;10.90;99.90
34698;DHT22;61391;50.922;6.928;2023-01-10T10:01:53;10.40;99.90
34698;DHT22;61391;50.922;6.928;2023-01-10T10:04:31;10.90;99.90
34698;DHT22;61391;50.922;6.928;2023-01-10T10:06:59;11.10;99.90
34698;DHT22;61391;50.922;6.928;2023-01-10T10:09:29;10.90;99.90
34698;DHT22;61391;50.922;6.928;2023-01-10T10:17:44;11.30;99.90
34698;DHT22;61391;50.922;6.928;2023-01-10T10:20:28;11.10;99.90
34698;DHT22;61391;50.922;6.928;2023-01-10T10:23:09;11.00;99.90
34698;DHT22;61391;50.922;6.928;2023-01-10T10:26:00;11.30;99.90
34698;DHT22;61391;50.922;6.928;2023-01-10T10:37:01;11.10;99.90
34698;DHT22;61391;50.922;6.928;2023-01-10T10:40:00;10.80;99.90
34698;DHT22;61391;50.922;6.928;2023-01-10T10:42:33;11.00;99.90
34698;DHT22;61391;50.922;6.928;2023-01-10T10:45:21;11.30;99.90
34698;DHT22;61391;50.922;6.928;2023-01-10T10:47:54;11.70;99.90
34698;DHT22;61391;50.922;6.928;2023-01-10T10:50:34;11.90;99.90
34698;DHT22;61391;50.922;6.928;2023-01-10T10:53:05;11.90;99.90
34698;DHT22;61391;50.922;6.928;2023-01-10T10:55:36;12.20;99.90
34698;DHT22;61391;50.922;6.928;2023-01-10T10:58:03;11.50;99.90
34698;DHT22;61391;50.922;6.928;2023-01-10T11:00:30;11.40;99.90
34698;DHT22;61391;50.922;6.928;2023-01-10T11:03:09;11.40;99.90
34698;DHT22;61391;50.922;6.928;2023-01-10T11:05:43;11.70;99.90
34698;DHT22;61391;50.922;6.928;2023-01-10T11:08:11;11.20;99.90
34698;DHT22;61391;50.922;6.928;2023-01-10T11:10:40;11.40;99.90
34698;DHT22;61391;50.922;6.928;2023-01-10T11:15:59;10.60;99.90
34698;DHT22;61391;50.922;6.928;2023-01-10T11:18:27;10.60;99.90
34698;DHT22;61391;50.922;6.928;2023-01-10T11:25:59;10.00;99.90
34698;DHT22;61391;50.922;6.928;2023-01-10T11:28:29;10.00;99.90
34698;DHT22;61391;50.922;6.928;2023-01-10T11:30:55;10.00;99.90
34698;DHT22;61391;50.922;6.928;2023-01-10T11:33:28;9.90;99.90
34698;DHT22;61391;50.922;6.928;2023-01-10T11:36:06;9.90;99.90
34698;DHT22;61391;50.922;6.928;2023-01-10T11:38:33;9.90;99.90
34698;DHT22;61391;50.922;6.928;2023-01-10T11:41:04;9.80;99.90
34698;DHT22;61391;50.922;6.928;2023-01-10T11:46:03;9.80;99.90
34698;DHT22;61391;50.922;6.928;2023-01-10T11:48:59;9.90;99.90
34698;DHT22;61391;50.922;6.928;2023-01-10T11:51:28;9.80;99.90
34698;DHT22;61391;50.922;6.928;2023-01-10T11:53:58;9.90;99.90
34698;DHT22;61391;50.922;6.928;2023-01-10T11:56:32;9.80;99.90
34698;DHT22;61391;50.922;6.928;2023-01-10T11:59:05;9.70;99.90
34698;DHT22;61391;50.922;6.928;2023-01-10T12:04:06;9.60;99.90
34698;DHT22;61391;50.922;6.928;2023-01-10T12:06:45;9.30;99.90
34698;DHT22;61391;50.922;6.928;2023-01-10T12:09:31;9.50;99.90
34698;DHT22;61391;50.922;6.928;2023-01-10T12:12:29;9.60;99.90
34698;DHT22;61391;50.922;6.928;2023-01-10T12:14:57;9.90;99.90
34698;DHT22;61391;50.922;6.928;2023-01-10T12:17:32;9.80;99.90
34698;DHT22;61391;50.922;6.928;2023-01-10T12:20:01;9.80;99.90
34698;DHT22;61391;50.922;6.928;2023-01-10T12:22:43;9.80;99.90
34698;DHT22;61391;50.922;6.928;2023-01-10T12:25:37;9.70;99.90
34698;DHT22;61391;50.922;6.928;2023-01-10T12:28:01;9.60;99.90
34698;DHT22;61391;50.922;6.928;2023-01-10T12:30:39;9.60;99.90
34698;DHT22;61391;50.922;6.928;2023-01-10T12:33:17;9.60;99.90
34698;DHT22;61391;50.922;6.928;2023-01-10T12:38:32;9.60;99.90
34698;DHT22;61391;50.922;6.928;2023-01-10T12:41:23;9.70;99.90
34698;DHT22;61391;50.922;6.928;2023-01-10T12:44:23;9.80;99.90
34698;DHT22;61391;50.922;6.928;2023-01-10T12:46:56;9.80;99.90
34698;DHT22;61391;50.922;6.928;2023-01-10T12:49:28;9.50;99.90
34698;DHT22;61391;50.922;6.928;2023-01-10T12:52:00;9.50;99.90
34698;DHT22;61391;50.922;6.928;2023-01-10T12:54:29;9.50;99.90
34698;DHT22;61391;50.922;6.928;2023-01-10T12:56:58;9.10;99.90
34698;DHT22;61391;50.922;6.928;2023-01-10T12:59:36;9.20;99.90
34698;DHT22;61391;50.922;6.928;2023-01-10T13:02:13;9.20;99.90
34698;DHT22;61391;50.922;6.928;2023-01-10T13:04:41;9.20;99.90
34698;DHT22;61391;50.922;6.928;2023-01-10T13:07:10;9.20;99.90
34698;DHT22;61391;50.922;6.928;2023-01-10T13:09:37;9.10;99.90
34698;DHT22;61391;50.922;6.928;2023-01-10T13:12:07;9.10;99.90
34698;DHT22;61391;50.922;6.928;2023-01-10T13:22:43;9.20;99.90
34698;DHT22;61391;50.922;6.928;2023-01-10T13:25:28;9.30;99.90
34698;DHT22;61391;50.922;6.928;2023-01-10T13:28:02;9.20;99.90
34698;DHT22;61391;50.922;6.928;2023-01-10T13:30:34;9.20;99.90
34698;DHT22;61391;50.922;6.928;2023-01-10T13:35:47;9.20;99.90
34698;DHT22;61391;50.922;6.928;2023-01-10T13:38:32;9.40;99.90
34698;DHT22;61391;50.922;6.928;2023-01-10T13:41:04;9.30;99.90
34698;DHT22;61391;50.922;6.928;2023-01-10T13:51:18;8.90;99.90
34698;DHT22;61391;50.922;6.928;2023-01-10T13:53:49;8.90;99.90
34698;DHT22;61391;50.922;6.928;2023-01-10T13:56:32;9.00;99.90
34698;DHT22;61391;50.922;6.928;2023-01-10T13:58:58;9.10;99.90
34698;DHT22;61391;50.922;6.928;2023-01-10T14:01:57;9.10;99.90
34698;DHT22;61391;50.922;6.928;2023-01-10T14:04:48;9.10;99.90
34698;DHT22;61391;50.922;6.928;2023-01-10T14:13:31;8.80;99.90
34698;DHT22;61391;50.922;6.928;2023-01-10T14:15:57;8.90;99.90
34698;DHT22;61391;50.922;6.928;2023-01-10T14:18:23;8.70;99.90
34698;DHT22;61391;50.922;6.928;2023-01-10T14:21:17;8.60;99.90
34698;DHT22;61391;50.922;6.928;2023-01-10T14:23:49;8.60;99.90
34698;DHT22;61391;50.922;6.928;2023-01-10T14:26:23;8.70;99.90
34698;DHT22;61391;50.922;6.928;2023-01-10T14:28:51;8.70;99.90
34698;DHT22;61391;50.922;6.928;2023-01-10T14:31:22;8.60;99.90
34698;DHT22;61391;50.922;6.928;2023-01-10T14:33:48;8.80;99.90
34698;DHT22;61391;50.922;6.928;2023-01-10T14:36:20;8.80;99.90
34698;DHT22;61391;50.922;6.928;2023-01-10T14:38:49;8.70;99.90
34698;DHT22;61391;50.922;6.928;2023-01-10T14:41:37;8.80;99.90
34698;DHT22;61391;50.922;6.928;2023-01-10T14:46:49;8.70;99.90
34698;DHT22;61391;50.922;6.928;2023-01-10T14:49:33;8.60;99.90
34698;DHT22;61391;50.922;6.928;2023-01-10T14:52:17;8.60;99.90
34698;DHT22;61391;50.922;6.928;2023-01-10T14:54:47;8.60;99.90
34698;DHT22;61391;50.922;6.928;2023-01-10T14:57:22;8.60;99.90
34698;DHT22;61391;50.922;6.928;2023-01-10T14:59:53;8.50;99.90
34698;DHT22;61391;50.922;6.928;2023-01-10T15:02:30;8.50;99.90
34698;DHT22;61391;50.922;6.928;2023-01-10T15:05:28;8.50;99.90
34698;DHT22;61391;50.922;6.928;2023-01-10T15:08:13;8.30;99.90
34698;DHT22;61391;50.922;6.928;2023-01-10T15:10:41;8.40;99.90
34698;DHT22;61391;50.922;6.928;2023-01-10T15:13:13;8.50;99.90
34698;DHT22;61391;50.922;6.928;2023-01-10T15:15:40;8.30;99.90
34698;DHT22;61391;50.922;6.928;2023-01-10T15:18:36;8.50;99.90
34698;DHT22;61391;50.922;6.928;2023-01-10T15:21:04;8.40;99.90
34698;DHT22;61391;50.922;6.928;2023-01-10T15:23:35;8.40;99.90
34698;DHT22;61391;50.922;6.928;2023-01-10T15:26:06;8.30;99.90
34698;DHT22;61391;50.922;6.928;2023-01-10T15:28:32;8.40;99.90
34698;DHT22;61391;50.922;6.928;2023-01-10T15:31:01;8.30;99.90
34698;DHT22;61391;50.922;6.928;2023-01-10T15:33:30;8.30;99.90
34698;DHT22;61391;50.922;6.928;2023-01-10T15:36:03;8.30;99.90
34698;DHT22;61391;50.922;6.928;2023-01-10T15:38:29;8.30;99.90
34698;DHT22;61391;50.922;6.928;2023-01-10T15:41:03;8.30;99.90
34698;DHT22;61391;50.922;6.928;2023-01-10T15:43:31;8.40;99.90
34698;DHT22;61391;50.922;6.928;2023-01-10T15:45:58;8.20;99.90
34698;DHT22;61391;50.922;6.928;2023-01-10T15:48:53;8.30;99.90
34698;DHT22;61391;50.922;6.928;2023-01-10T15:51:27;8.10;99.90
34698;DHT22;61391;50.922;6.928;2023-01-10T15:54:04;8.30;99.90
34698;DHT22;61391;50.922;6.928;2023-01-10T15:56:55;8.20;99.90
34698;DHT22;61391;50.922;6.928;2023-01-10T15:59:35;8.10;99.90
34698;DHT22;61391;50.922;6.928;2023-01-10T16:02:28;8.10;99.90
34698;DHT22;61391;50.922;6.928;2023-01-10T16:11:49;7.70;99.90
34698;DHT22;61391;50.922;6.928;2023-01-10T16:14:34;7.60;99.90
34698;DHT22;61391;50.922;6.928;2023-01-10T16:17:00;7.50;99.90
34698;DHT22;61391;50.922;6.928;2023-01-10T16:19:27;7.40;99.90
34698;DHT22;61391;50.922;6.928;2023-01-10T16:21:55;7.20;99.90
34698;DHT22;61391;50.922;6.928;2023-01-10T16:27:46;7.30;99.90
34698;DHT22;61391;50.922;6.928;2023-01-10T16:30:33;7.40;99.90
34698;DHT22;61391;50.922;6.928;2023-01-10T16:33:09;7.10;99.90
34698;DHT22;61391;50.922;6.928;2023-01-10T16:35:36;7.10;99.90
34698;DHT22;61391;50.922;6.928;2023-01-10T16:38:02;7.20;99.90
34698;DHT22;61391;50.922;6.928;2023-01-10T16:43:50;7.10;99.90
34698;DHT22;61391;50.922;6.928;2023-01-10T16:53:02;7.10;99.90
34698;DHT22;61391;50.922;6.928;2023-01-10T16:55:43;7.10;99.90
34698;DHT22;61391;50.922;6.928;2023-01-10T16:58:17;7.20;99.90
34698;DHT22;61391;50.922;6.928;2023-01-10T17:00:46;7.10;99.90
34698;DHT22;61391;50.922;6.928;2023-01-10T17:06:34;6.90;99.90
34698;DHT22;61391;50.922;6.928;2023-01-10T17:09:03;7.00;99.90
34698;DHT22;61391;50.922;6.928;2023-01-10T17:14:53;6.90;99.90
34698;DHT22;61391;50.922;6.928;2023-01-10T17:17:20;6.90;99.90
34698;DHT22;61391;50.922;6.928;2023-01-10T17:19:47;6.90;99.90
34698;DHT22;61391;50.922;6.928;2023-01-10T17:22:13;6.90;99.90
34698;DHT22;61391;50.922;6.928;2023-01-10T17:24:39;6.90;99.90
34698;DHT22;61391;50.922;6.928;2023-01-10T17:27:04;6.80;99.90
34698;DHT22;61391;50.922;6.928;2023-01-10T17:32:54;6.90;99.90
34698;DHT22;61391;50.922;6.928;2023-01-10T17:35:20;6.90;99.90
34698;DHT22;61391;50.922;6.928;2023-01-10T17:41:15;6.90;99.90
34698;DHT22;61391;50.922;6.928;2023-01-10T17:43:44;6.80;99.90
34698;DHT22;61391;50.922;6.928;2023-01-10T17:46:09;6.70;99.90
34698;DHT22;61391;50.922;6.928;2023-01-10T17:52:00;6.70;99.90
34698;DHT22;61391;50.922;6.928;2023-01-10T17:54:31;6.80;99.90
34698;DHT22;61391;50.922;6.928;2023-01-10T18:00:20;6.90;99.90
34698;DHT22;61391;50.922;6.928;2023-01-10T18:06:08;6.70;99.90
34698;DHT22;61391;50.922;6.928;2023-01-10T18:11:46;6.60;99.90
34698;DHT22;61391;50.922;6.928;2023-01-10T18:14:14;6.70;99.90
34698;DHT22;61391;50.922;6.928;2023-01-10T18:16:58;6.70;99.90
34698;DHT22;61391;50.922;6.928;2023-01-10T18:22:46;6.50;99.90
34698;DHT22;61391;50.922;6.928;2023-01-10T18:25:30;6.40;99.90
34698;DHT22;61391;50.922;6.928;2023-01-10T18:31:19;6.40;99.90
34698;DHT22;61391;50.922;6.928;2023-01-10T18:33:49;6.40;99.90
34698;DHT22;61391;50.922;6.928;2023-01-10T18:36:20;6.50;99.90
34698;DHT22;61391;50.922;6.928;2023-01-10T18:38:48;6.60;99.90
34698;DHT22;61391;50.922;6.928;2023-01-10T18:41:25;6.50;99.90
34698;DHT22;61391;50.922;6.928;2023-01-10T18:43:54;6.60;99.90
34698;DHT22;61391;50.922;6.928;2023-01-10T18:46:21;6.60;99.90
34698;DHT22;61391;50.922;6.928;2023-01-10T18:48:50;6.60;99.90
34698;DHT22;61391;50.922;6.928;2023-01-10T18:51:15;6.70;99.90
34698;DHT22;61391;50.922;6.928;2023-01-10T18:53:47;6.70;99.90
34698;DHT22;61391;50.922;6.928;2023-01-10T18:56:17;6.70;99.90
34698;DHT22;61391;50.922;6.928;2023-01-10T19:02:18;6.80;99.90
34698;DHT22;61391;50.922;6.928;2023-01-10T19:04:44;6.80;99.90
34698;DHT22;61391;50.922;6.928;2023-01-10T19:07:19;6.90;99.90
34698;DHT22;61391;50.922;6.928;2023-01-10T19:09:45;6.80;99.90
34698;DHT22;61391;50.922;6.928;2023-01-10T19:12:11;6.90;99.90
34698;DHT22;61391;50.922;6.928;2023-01-10T19:14:36;6.90;99.90
34698;DHT22;61391;50.922;6.928;2023-01-10T19:20:24;6.90;99.90
34698;DHT22;61391;50.922;6.928;2023-01-10T19:23:12;7.00;99.90
34698;DHT22;61391;50.922;6.928;2023-01-10T19:25:38;7.00;99.90
34698;DHT22;61391;50.922;6.928;2023-01-10T19:28:06;7.00;99.90
34698;DHT22;61391;50.922;6.928;2023-01-10T19:34:09;7.30;99.90
34698;DHT22;61391;50.922;6.928;2023-01-10T19:39:57;7.30;99.90
34698;DHT22;61391;50.922;6.928;2023-01-10T19:42:23;7.30;99.90
34698;DHT22;61391;50.922;6.928;2023-01-10T19:44:49;7.30;99.90
34698;DHT22;61391;50.922;6.928;2023-01-10T19:47:17;7.30;99.90
34698;DHT22;61391;50.922;6.928;2023-01-10T19:53:05;7.40;99.90
34698;DHT22;61391;50.922;6.928;2023-01-10T19:55:30;7.40;99.90
34698;DHT22;61391;50.922;6.928;2023-01-10T19:57:56;7.40;99.90
34698;DHT22;61391;50.922;6.928;2023-01-10T20:00:23;7.30;99.90
34698;DHT22;61391;50.922;6.928;2023-01-10T20:02:59;7.30;99.90
34698;DHT22;61391;50.922;6.928;2023-01-10T20:05:26;7.40;99.90
34698;DHT22;61391;50.922;6.928;2023-01-10T20:07:52;7.40;99.90
34698;DHT22;61391;50.922;6.928;2023-01-10T20:10:20;7.40;99.90
34698;DHT22;61391;50.922;6.928;2023-01-10T20:12:46;7.40;99.90
34698;DHT22;61391;50.922;6.928;2023-01-10T20:18:36;7.40;99.90
34698;DHT22;61391;50.922;6.928;2023-01-10T20:21:35;7.50;99.90
34698;DHT22;61391;50.922;6.928;2023-01-10T20:24:24;7.60;99.90
34698;DHT22;61391;50.922;6.928;2023-01-10T20:27:03;7.70;99.90
34698;DHT22;61391;50.922;6.928;2023-01-10T20:29:32;7.60;99.90
34698;DHT22;61391;50.922;6.928;2023-01-10T20:35:22;7.80;99.90
34698;DHT22;61391;50.922;6.928;2023-01-10T20:37:47;7.80;99.90
34698;DHT22;61391;50.922;6.928;2023-01-10T20:40:14;7.70;99.90
34698;DHT22;61391;50.922;6.928;2023-01-10T20:42:41;7.70;99.90
34698;DHT22;61391;50.922;6.928;2023-01-10T20:48:29;7.80;99.90
34698;DHT22;61391;50.922;6.928;2023-01-10T20:50:58;7.80;99.90
34698;DHT22;61391;50.922;6.928;2023-01-10T20:53:23;7.90;99.90
34698;DHT22;61391;50.922;6.928;2023-01-10T20:55:50;7.80;99.90
34698;DHT22;61391;50.922;6.928;2023-01-10T20:58:15;7.80;99.90
34698;DHT22;61391;50.922;6.928;2023-01-10T21:00:41;7.70;99.90